sensor_id;sensor_type;location;lat;lon;timestamp;temperature;humidity
796;DHT22;381;48.770;9.188;2023-12-07T00:04:43;5.50;99.90
796;DHT22;381;48.770;9.188;2023-12-07T00:09:46;5.60;99.90
796;DHT22;381;48.770;9.188;2023-12-07T00:14:48;5.60;99.90
796;DHT22;381;48.770;9.188;2023-12-07T00:19:50;5.70;99.90
796;DHT22;381;48.770;9.188;2023-12-07T00:24:55;5.70;99.90
796;DHT22;381;48.770;9.188;2023-12-07T00:29:57;5.70;99.90
796;DHT22;381;48.770;9.188;2023-12-07T00:34:59;5.70;99.90
796;DHT22;381;48.770;9.188;2023-12-07T00:40:03;5.70;99.90
796;DHT22;381;48.770;9.188;2023-12-07T00:45:05;5.70;99.90
796;DHT22;381;48.770;9.188;2023-12-07T00:50:08;5.80;99.90
796;DHT22;381;48.770;9.188;2023-12-07T00:55:11;5.80;99.90
796;DHT22;381;48.770;9.188;2023-12-07T01:00:14;5.80;99.90
796;DHT22;381;48.770;9.188;2023-12-07T01:05:16;5.90;99.90
796;DHT22;381;48.770;9.188;2023-12-07T01:10:19;5.90;99.90
796;DHT22;381;48.770;9.188;2023-12-07T01:15:21;5.90;99.90
796;DHT22;381;48.770;9.188;2023-12-07T01:20:23;5.90;99.90
796;DHT22;381;48.770;9.188;2023-12-07T01:25:26;5.80;99.90
796;DHT22;381;48.770;9.188;2023-12-07T01:30:28;5.80;99.90
796;DHT22;381;48.770;9.188;2023-12-07T01:35:29;5.80;99.90
796;DHT22;381;48.770;9.188;2023-12-07T01:40:33;5.80;99.90
796;DHT22;381;48.770;9.188;2023-12-07T01:45:35;5.80;99.90
796;DHT22;381;48.770;9.188;2023-12-07T01:50:37;5.70;99.90
796;DHT22;381;48.770;9.188;2023-12-07T01:55:40;5.70;99.90
796;DHT22;381;48.770;9.188;2023-12-07T02:00:42;5.70;99.90
796;DHT22;381;48.770;9.188;2023-12-07T02:05:47;5.60;99.90
796;DHT22;381;48.770;9.188;2023-12-07T02:10:50;5.50;99.90
796;DHT22;381;48.770;9.188;2023-12-07T02:15:54;5.40;99.90
796;DHT22;381;48.770;9.188;2023-12-07T02:21:01;5.30;99.90
796;DHT22;381;48.770;9.188;2023-12-07T02:26:07;5.20;99.90
796;DHT22;381;48.770;9.188;2023-12-07T02:31:11;5.10;99.90
796;DHT22;381;48.770;9.188;2023-12-07T02:36:15;5.00;99.90
796;DHT22;381;48.770;9.188;2023-12-07T02:41:18;4.90;99.90
796;DHT22;381;48.770;9.188;2023-12-07T02:46:23;4.90;99.90
796;DHT22;381;48.770;9.188;2023-12-07T02:51:24;4.80;99.90
796;DHT22;381;48.770;9.188;2023-12-07T02:56:26;4.70;99.90
796;DHT22;381;48.770;9.188;2023-12-07T03:01:30;4.60;99.90
796;DHT22;381;48.770;9.188;2023-12-07T03:06:31;4.40;99.90
796;DHT22;381;48.770;9.188;2023-12-07T03:11:33;4.40;99.90
796;DHT22;381;48.770;9.188;2023-12-07T03:16:36;4.30;99.90
796;DHT22;381;48.770;9.188;2023-12-07T03:21:40;4.30;99.90
796;DHT22;381;48.770;9.188;2023-12-07T03:26:42;4.30;99.90
796;DHT22;381;48.770;9.188;2023-12-07T03:31:45;4.40;99.90
796;DHT22;381;48.770;9.188;2023-12-07T03:36:47;4.40;99.90
796;DHT22;381;48.770;9.188;2023-12-07T03:41:49;4.50;99.90
796;DHT22;381;48.770;9.188;2023-12-07T03:46:53;4.50;99.90
796;DHT22;381;48.770;9.188;2023-12-07T03:51:55;4.50;99.90
796;DHT22;381;48.770;9.188;2023-12-07T03:56:56;4.60;99.90
796;DHT22;381;48.770;9.188;2023-12-07T04:02:00;4.50;99.90
796;DHT22;381;48.770;9.188;2023-12-07T04:07:01;4.50;99.90
796;DHT22;381;48.770;9.188;2023-12-07T04:12:04;4.50;99.90
796;DHT22;381;48.770;9.188;2023-12-07T04:17:07;4.50;99.90
796;DHT22;381;48.770;9.188;2023-12-07T04:22:09;4.40;99.90
796;DHT22;381;48.770;9.188;2023-12-07T04:27:11;4.30;99.90
796;DHT22;381;48.770;9.188;2023-12-07T04:32:14;4.20;99.90
796;DHT22;381;48.770;9.188;2023-12-07T04:37:16;4.20;99.90
796;DHT22;381;48.770;9.188;2023-12-07T04:42:18;4.10;99.90
796;DHT22;381;48.770;9.188;2023-12-07T04:47:21;4.00;99.90
796;DHT22;381;48.770;9.188;2023-12-07T04:52:24;3.90;99.90
796;DHT22;381;48.770;9.188;2023-12-07T04:57:26;3.80;99.90
796;DHT22;381;48.770;9.188;2023-12-07T05:02:29;3.70;99.90
796;DHT22;381;48.770;9.188;2023-12-07T05:07:31;3.70;99.90
796;DHT22;381;48.770;9.188;2023-12-07T05:12:33;3.60;99.90
796;DHT22;381;48.770;9.188;2023-12-07T05:17:37;3.60;99.90
796;DHT22;381;48.770;9.188;2023-12-07T05:22:39;3.60;99.90
796;DHT22;381;48.770;9.188;2023-12-07T05:27:41;3.60;99.90
796;DHT22;381;48.770;9.188;2023-12-07T05:32:44;3.50;99.90
796;DHT22;381;48.770;9.188;2023-12-07T05:37:46;3.50;99.90
796;DHT22;381;48.770;9.188;2023-12-07T05:42:49;3.40;99.90
796;DHT22;381;48.770;9.188;2023-12-07T05:47:53;3.40;99.90
796;DHT22;381;48.770;9.188;2023-12-07T05:52:54;3.30;99.90
796;DHT22;381;48.770;9.188;2023-12-07T05:57:56;3.30;99.90
796;DHT22;381;48.770;9.188;2023-12-07T06:03:00;3.30;99.90
796;DHT22;381;48.770;9.188;2023-12-07T06:08:03;3.20;99.90
796;DHT22;381;48.770;9.188;2023-12-07T06:13:05;3.30;99.90
796;DHT22;381;48.770;9.188;2023-12-07T06:18:09;3.20;99.90
796;DHT22;381;48.770;9.188;2023-12-07T06:23:10;3.20;99.90
796;DHT22;381;48.770;9.188;2023-12-07T06:28:13;3.10;99.90
796;DHT22;381;48.770;9.188;2023-12-07T06:33:16;3.10;99.90
796;DHT22;381;48.770;9.188;2023-12-07T06:38:18;3.10;99.90
796;DHT22;381;48.770;9.188;2023-12-07T06:43:20;3.10;99.90
796;DHT22;381;48.770;9.188;2023-12-07T06:48:24;3.10;99.90
796;DHT22;381;48.770;9.188;2023-12-07T06:53:26;3.10;99.90
796;DHT22;381;48.770;9.188;2023-12-07T06:58:28;3.00;99.90
796;DHT22;381;48.770;9.188;2023-12-07T07:03:31;3.00;99.90
796;DHT22;381;48.770;9.188;2023-12-07T07:08:33;3.00;99.90
796;DHT22;381;48.770;9.188;2023-12-07T07:13:35;3.10;99.90
796;DHT22;381;48.770;9.188;2023-12-07T07:18:39;3.10;99.90
796;DHT22;381;48.770;9.188;2023-12-07T07:23:41;3.00;99.90
796;DHT22;381;48.770;9.188;2023-12-07T07:28:43;3.00;99.90
796;DHT22;381;48.770;9.188;2023-12-07T07:33:46;3.00;99.90
796;DHT22;381;48.770;9.188;2023-12-07T07:38:48;3.00;99.90
796;DHT22;381;48.770;9.188;2023-12-07T07:43:50;3.00;99.90
796;DHT22;381;48.770;9.188;2023-12-07T07:48:53;2.90;99.90
796;DHT22;381;48.770;9.188;2023-12-07T07:53:55;2.90;99.90
796;DHT22;381;48.770;9.188;2023-12-07T07:58:57;2.90;99.90
796;DHT22;381;48.770;9.188;2023-12-07T08:04:02;3.00;99.90
796;DHT22;381;48.770;9.188;2023-12-07T08:09:04;3.00;99.90
796;DHT22;381;48.770;9.188;2023-12-07T08:14:06;3.00;99.90
796;DHT22;381;48.770;9.188;2023-12-07T08:19:10;3.00;99.90
796;DHT22;381;48.770;9.188;2023-12-07T08:24:12;3.00;99.90
796;DHT22;381;48.770;9.188;2023-12-07T08:29:14;2.90;99.90
796;DHT22;381;48.770;9.188;2023-12-07T08:34:17;3.00;99.90
796;DHT22;381;48.770;9.188;2023-12-07T08:39:19;3.00;99.90
796;DHT22;381;48.770;9.188;2023-12-07T08:44:21;3.00;99.90
796;DHT22;381;48.770;9.188;2023-12-07T08:49:24;3.10;99.90
796;DHT22;381;48.770;9.188;2023-12-07T08:54:27;3.20;99.90
796;DHT22;381;48.770;9.188;2023-12-07T08:59:29;3.30;99.90
796;DHT22;381;48.770;9.188;2023-12-07T09:04:32;3.40;99.90
796;DHT22;381;48.770;9.188;2023-12-07T09:09:34;3.50;99.90
796;DHT22;381;48.770;9.188;2023-12-07T09:14:36;3.60;99.90
796;DHT22;381;48.770;9.188;2023-12-07T09:19:39;3.60;99.90
796;DHT22;381;48.770;9.188;2023-12-07T09:24:41;3.70;99.90
796;DHT22;381;48.770;9.188;2023-12-07T09:29:43;3.70;99.90
796;DHT22;381;48.770;9.188;2023-12-07T09:34:46;3.80;99.90
796;DHT22;381;48.770;9.188;2023-12-07T09:39:51;3.90;99.90
796;DHT22;381;48.770;9.188;2023-12-07T09:44:54;4.00;99.90
796;DHT22;381;48.770;9.188;2023-12-07T09:49:57;4.10;99.90
796;DHT22;381;48.770;9.188;2023-12-07T09:55:02;4.20;99.90
796;DHT22;381;48.770;9.188;2023-12-07T10:00:05;4.30;99.90
796;DHT22;381;48.770;9.188;2023-12-07T10:05:13;4.30;99.90
796;DHT22;381;48.770;9.188;2023-12-07T10:10:17;4.40;99.90
796;DHT22;381;48.770;9.188;2023-12-07T10:15:21;4.50;99.90
796;DHT22;381;48.770;9.188;2023-12-07T10:20:25;4.50;99.90
796;DHT22;381;48.770;9.188;2023-12-07T10:25:29;4.50;99.90
796;DHT22;381;48.770;9.188;2023-12-07T10:30:31;4.60;99.90
796;DHT22;381;48.770;9.188;2023-12-07T10:35:38;4.70;99.90
796;DHT22;381;48.770;9.188;2023-12-07T10:40:40;4.80;99.90
796;DHT22;381;48.770;9.188;2023-12-07T10:45:43;4.80;99.90
796;DHT22;381;48.770;9.188;2023-12-07T10:50:51;4.80;99.90
796;DHT22;381;48.770;9.188;2023-12-07T10:55:56;4.90;99.90
796;DHT22;381;48.770;9.188;2023-12-07T11:00:59;5.00;99.90
796;DHT22;381;48.770;9.188;2023-12-07T11:06:04;5.00;99.90
796;DHT22;381;48.770;9.188;2023-12-07T11:11:10;5.00;99.90
796;DHT22;381;48.770;9.188;2023-12-07T11:16:14;5.10;99.90
796;DHT22;381;48.770;9.188;2023-12-07T11:21:17;5.20;99.90
796;DHT22;381;48.770;9.188;2023-12-07T11:26:20;5.30;99.90
796;DHT22;381;48.770;9.188;2023-12-07T11:31:22;5.30;99.90
796;DHT22;381;48.770;9.188;2023-12-07T11:36:25;5.40;99.90
796;DHT22;381;48.770;9.188;2023-12-07T11:41:29;5.50;99.90
796;DHT22;381;48.770;9.188;2023-12-07T11:46:31;5.50;99.90
796;DHT22;381;48.770;9.188;2023-12-07T11:51:36;5.50;99.90
796;DHT22;381;48.770;9.188;2023-12-07T11:56:39;5.60;99.90
796;DHT22;381;48.770;9.188;2023-12-07T12:01:46;5.70;99.90
796;DHT22;381;48.770;9.188;2023-12-07T12:06:50;5.70;99.90
796;DHT22;381;48.770;9.188;2023-12-07T12:11:52;5.70;99.90
796;DHT22;381;48.770;9.188;2023-12-07T12:16:54;5.80;99.90
796;DHT22;381;48.770;9.188;2023-12-07T12:22:02;5.80;99.90
796;DHT22;381;48.770;9.188;2023-12-07T12:27:05;5.90;99.90
796;DHT22;381;48.770;9.188;2023-12-07T12:32:09;5.90;99.90
796;DHT22;381;48.770;9.188;2023-12-07T12:37:12;5.90;99.90
796;DHT22;381;48.770;9.188;2023-12-07T12:42:14;5.90;99.90
796;DHT22;381;48.770;9.188;2023-12-07T12:47:16;5.90;99.90
796;DHT22;381;48.770;9.188;2023-12-07T12:52:19;6.00;99.90
796;DHT22;381;48.770;9.188;2023-12-07T12:57:22;5.90;99.90
796;DHT22;381;48.770;9.188;2023-12-07T13:02:25;5.90;99.90
796;DHT22;381;48.770;9.188;2023-12-07T13:07:28;6.00;99.90
796;DHT22;381;48.770;9.188;2023-12-07T13:12:31;6.00;99.90
796;DHT22;381;48.770;9.188;2023-12-07T13:17:36;6.00;99.90
796;DHT22;381;48.770;9.188;2023-12-07T13:22:40;6.00;99.90
796;DHT22;381;48.770;9.188;2023-12-07T13:27:44;6.00;99.90
796;DHT22;381;48.770;9.188;2023-12-07T13:32:46;6.00;99.90
796;DHT22;381;48.770;9.188;2023-12-07T13:37:52;6.00;99.90
796;DHT22;381;48.770;9.188;2023-12-07T13:42:54;6.00;99.90
796;DHT22;381;48.770;9.188;2023-12-07T13:47:56;5.90;99.90
796;DHT22;381;48.770;9.188;2023-12-07T13:53:01;6.00;99.90
796;DHT22;381;48.770;9.188;2023-12-07T13:58:04;6.00;99.90
796;DHT22;381;48.770;9.188;2023-12-07T14:03:07;5.90;99.90
796;DHT22;381;48.770;9.188;2023-12-07T14:08:12;6.00;99.90
796;DHT22;381;48.770;9.188;2023-12-07T14:13:14;6.00;99.90
796;DHT22;381;48.770;9.188;2023-12-07T14:18:18;6.00;99.90
796;DHT22;381;48.770;9.188;2023-12-07T14:23:22;6.00;99.90
796;DHT22;381;48.770;9.188;2023-12-07T14:28:24;6.00;99.90
796;DHT22;381;48.770;9.188;2023-12-07T14:33:29;6.00;99.90
796;DHT22;381;48.770;9.188;2023-12-07T14:38:32;6.00;99.90
796;DHT22;381;48.770;9.188;2023-12-07T14:43:35;6.00;99.90
796;DHT22;381;48.770;9.188;2023-12-07T14:48:37;5.90;99.90
796;DHT22;381;48.770;9.188;2023-12-07T14:53:41;5.90;99.90
796;DHT22;381;48.770;9.188;2023-12-07T14:58:43;5.80;99.90
796;DHT22;381;48.770;9.188;2023-12-07T15:03:47;5.70;99.90
796;DHT22;381;48.770;9.188;2023-12-07T15:08:51;5.60;99.90
796;DHT22;381;48.770;9.188;2023-12-07T15:13:54;5.40;99.90
796;DHT22;381;48.770;9.188;2023-12-07T15:18:56;5.20;99.90
796;DHT22;381;48.770;9.188;2023-12-07T15:24:00;5.10;99.90
796;DHT22;381;48.770;9.188;2023-12-07T15:29:02;4.90;99.90
796;DHT22;381;48.770;9.188;2023-12-07T15:34:05;4.80;99.90
796;DHT22;381;48.770;9.188;2023-12-07T15:39:12;4.70;99.90
796;DHT22;381;48.770;9.188;2023-12-07T15:44:14;4.60;99.90
796;DHT22;381;48.770;9.188;2023-12-07T15:49:17;4.50;99.90
796;DHT22;381;48.770;9.188;2023-12-07T15:54:20;4.40;99.90
796;DHT22;381;48.770;9.188;2023-12-07T15:59:23;4.30;99.90
796;DHT22;381;48.770;9.188;2023-12-07T16:04:25;4.30;99.90
796;DHT22;381;48.770;9.188;2023-12-07T16:09:29;4.20;99.90
796;DHT22;381;48.770;9.188;2023-12-07T16:14:31;4.20;99.90
796;DHT22;381;48.770;9.188;2023-12-07T16:19:33;4.10;99.90
796;DHT22;381;48.770;9.188;2023-12-07T16:24:37;4.00;99.90
796;DHT22;381;48.770;9.188;2023-12-07T16:29:40;3.90;99.90
796;DHT22;381;48.770;9.188;2023-12-07T16:34:42;3.90;99.90
796;DHT22;381;48.770;9.188;2023-12-07T16:39:48;3.90;99.90
796;DHT22;381;48.770;9.188;2023-12-07T16:44:51;3.90;99.90
796;DHT22;381;48.770;9.188;2023-12-07T16:49:55;3.80;99.90
796;DHT22;381;48.770;9.188;2023-12-07T16:54:59;3.80;99.90
796;DHT22;381;48.770;9.188;2023-12-07T17:00:01;3.70;99.90
796;DHT22;381;48.770;9.188;2023-12-07T17:05:04;3.80;99.90
796;DHT22;381;48.770;9.188;2023-12-07T17:10:08;3.70;99.90
796;DHT22;381;48.770;9.188;2023-12-07T17:15:11;3.70;99.90
796;DHT22;381;48.770;9.188;2023-12-07T17:20:14;3.60;99.90
796;DHT22;381;48.770;9.188;2023-12-07T17:25:18;3.60;99.90
796;DHT22;381;48.770;9.188;2023-12-07T17:30:21;3.50;99.90
796;DHT22;381;48.770;9.188;2023-12-07T17:35:24;3.50;99.90
796;DHT22;381;48.770;9.188;2023-12-07T17:40:28;3.50;99.90
796;DHT22;381;48.770;9.188;2023-12-07T17:45:30;3.10;99.90
796;DHT22;381;48.770;9.188;2023-12-07T17:50:33;3.40;99.90
796;DHT22;381;48.770;9.188;2023-12-07T17:55:36;3.50;99.90
796;DHT22;381;48.770;9.188;2023-12-07T18:00:39;3.50;99.90
796;DHT22;381;48.770;9.188;2023-12-07T18:05:42;3.50;99.90
796;DHT22;381;48.770;9.188;2023-12-07T18:10:46;3.50;99.90
796;DHT22;381;48.770;9.188;2023-12-07T18:15:49;3.50;99.90
796;DHT22;381;48.770;9.188;2023-12-07T18:20:51;3.40;99.90
796;DHT22;381;48.770;9.188;2023-12-07T18:25:55;3.40;99.90
796;DHT22;381;48.770;9.188;2023-12-07T18:30:57;3.30;99.90
796;DHT22;381;48.770;9.188;2023-12-07T18:35:59;3.30;99.90
796;DHT22;381;48.770;9.188;2023-12-07T18:41:03;3.30;99.90
796;DHT22;381;48.770;9.188;2023-12-07T18:46:06;3.20;99.90
796;DHT22;381;48.770;9.188;2023-12-07T18:51:09;3.20;99.90
796;DHT22;381;48.770;9.188;2023-12-07T18:56:15;3.10;99.90
796;DHT22;381;48.770;9.188;2023-12-07T19:01:18;3.10;99.90
796;DHT22;381;48.770;9.188;2023-12-07T19:06:20;3.10;99.90
796;DHT22;381;48.770;9.188;2023-12-07T19:11:24;3.10;99.90
796;DHT22;381;48.770;9.188;2023-12-07T19:16:26;3.10;99.90
796;DHT22;381;48.770;9.188;2023-12-07T19:21:29;3.00;99.90
796;DHT22;381;48.770;9.188;2023-12-07T19:26:32;2.90;99.90
796;DHT22;381;48.770;9.188;2023-12-07T19:31:37;3.00;99.90
796;DHT22;381;48.770;9.188;2023-12-07T19:36:40;2.90;99.90
796;DHT22;381;48.770;9.188;2023-12-07T19:41:44;2.90;99.90
796;DHT22;381;48.770;9.188;2023-12-07T19:46:46;2.90;99.90
796;DHT22;381;48.770;9.188;2023-12-07T19:51:49;2.90;99.90
796;DHT22;381;48.770;9.188;2023-12-07T19:56:53;2.90;99.90
796;DHT22;381;48.770;9.188;2023-12-07T20:01:56;2.90;99.90
796;DHT22;381;48.770;9.188;2023-12-07T20:06:58;3.00;99.90
796;DHT22;381;48.770;9.188;2023-12-07T20:12:02;3.10;99.90
796;DHT22;381;48.770;9.188;2023-12-07T20:17:05;3.10;99.90
796;DHT22;381;48.770;9.188;2023-12-07T20:22:08;3.20;99.90
796;DHT22;381;48.770;9.188;2023-12-07T20:27:13;3.30;99.90
796;DHT22;381;48.770;9.188;2023-12-07T20:32:15;3.40;99.90
796;DHT22;381;48.770;9.188;2023-12-07T20:37:17;3.40;99.90
796;DHT22;381;48.770;9.188;2023-12-07T20:42:21;3.50;99.90
796;DHT22;381;48.770;9.188;2023-12-07T20:47:23;3.60;99.90
796;DHT22;381;48.770;9.188;2023-12-07T20:52:30;3.70;99.90
796;DHT22;381;48.770;9.188;2023-12-07T20:57:34;3.70;99.90
796;DHT22;381;48.770;9.188;2023-12-07T21:02:37;3.80;99.90
796;DHT22;381;48.770;9.188;2023-12-07T21:07:42;3.80;99.90
796;DHT22;381;48.770;9.188;2023-12-07T21:12:46;3.90;99.90
796;DHT22;381;48.770;9.188;2023-12-07T21:17:51;3.90;99.90
796;DHT22;381;48.770;9.188;2023-12-07T21:22:53;4.00;99.90
796;DHT22;381;48.770;9.188;2023-12-07T21:27:57;4.10;99.90
796;DHT22;381;48.770;9.188;2023-12-07T21:32:59;4.10;99.90
796;DHT22;381;48.770;9.188;2023-12-07T21:38:02;4.20;99.90
796;DHT22;381;48.770;9.188;2023-12-07T21:43:05;4.20;99.90
796;DHT22;381;48.770;9.188;2023-12-07T21:48:08;4.20;99.90
796;DHT22;381;48.770;9.188;2023-12-07T21:53:10;4.20;99.90
796;DHT22;381;48.770;9.188;2023-12-07T21:58:14;4.20;99.90
796;DHT22;381;48.770;9.188;2023-12-07T22:03:17;4.20;99.90
796;DHT22;381;48.770;9.188;2023-12-07T22:08:19;4.20;99.90
796;DHT22;381;48.770;9.188;2023-12-07T22:13:23;4.20;99.90
796;DHT22;381;48.770;9.188;2023-12-07T22:18:25;4.20;99.90
796;DHT22;381;48.770;9.188;2023-12-07T22:23:28;4.20;99.90
796;DHT22;381;48.770;9.188;2023-12-07T22:28:32;4.20;99.90
796;DHT22;381;48.770;9.188;2023-12-07T22:33:34;4.30;99.90
796;DHT22;381;48.770;9.188;2023-12-07T22:38:36;4.30;99.90
796;DHT22;381;48.770;9.188;2023-12-07T22:43:40;4.30;99.90
796;DHT22;381;48.770;9.188;2023-12-07T22:48:42;4.30;99.90
796;DHT22;381;48.770;9.188;2023-12-07T22:53:45;4.30;99.90
796;DHT22;381;48.770;9.188;2023-12-07T22:58:49;4.30;99.90
796;DHT22;381;48.770;9.188;2023-12-07T23:24:05;4.30;99.90
796;DHT22;381;48.770;9.188;2023-12-07T23:29:09;4.10;99.90
796;DHT22;381;48.770;9.188;2023-12-07T23:34:12;4.10;99.90
796;DHT22;381;48.770;9.188;2023-12-07T23:39:14;4.20;99.90
796;DHT22;381;48.770;9.188;2023-12-07T23:44:18;4.20;99.90
796;DHT22;381;48.770;9.188;2023-12-07T23:49:20;4.20;99.90
796;DHT22;381;48.770;9.188;2023-12-07T23:54:23;4.20;99.90
796;DHT22;381;48.770;9.188;2023-12-07T23:59:27;4.30;99.90
